This is the latest recevied weather packets stored in our database for station/object 4S6DRJ-13. If no packets are shown the sender has not sent any weather packets the latest 10 day(s).
| Time | Temp. | Humidity | Pressure | Rain* | Wind** | Luminosity | Snow |
|---|---|---|---|---|---|---|---|
| 1787681023 | 27.22° C | 89% | 1012 hPa | 0 mm | 0 m/s | 0 W/m² | - |
| 1787680961 | 27.22° C | 89% | 1012 hPa | 0 mm | 0 m/s | 0 W/m² | - |
| 1787680900 | 27.22° C | 89% | 1012 hPa | 0 mm | 0 m/s | 0 W/m² | - |
| 1787680839 | 27.22° C | 89% | 1011.8 hPa | 0 mm | 0 m/s | 0 W/m² | - |
| 1787680779 | 27.22° C | 89% | 1011.8 hPa | 0 mm | 1.34 m/s, 212° | 0 W/m² | - |
| 1787680717 | 27.22° C | 89% | 1012 hPa | 0 mm | 0.45 m/s, 251° | 0 W/m² | - |
| 1787680657 | 27.22° C | 89% | 1012 hPa | 0 mm | 1.34 m/s, 145° | 0 W/m² | - |
| 1787680596 | 27.22° C | 90% | 1011.8 hPa | 0 mm | 0.89 m/s, 140° | 0 W/m² | - |
| 1787680534 | 27.22° C | 90% | 1011.7 hPa | 0 mm | 0.45 m/s, 211° | 0 W/m² | - |
| 1787680474 | 27.22° C | 90% | 1012 hPa | 0 mm | 0.89 m/s, 188° | 0 W/m² | - |
| 1787680412 | 27.22° C | 90% | 1012.1 hPa | 0 mm | 0.89 m/s, 256° | 0 W/m² | - |
| 1787680351 | 27.22° C | 90% | 1012.1 hPa | 0 mm | 0.89 m/s, 175° | 0 W/m² | - |
| 1787680290 | 27.22° C | 90% | 1012.1 hPa | 0 mm | 0.45 m/s, 192° | 0 W/m² | - |
| 1787680229 | 27.22° C | 90% | 1012 hPa | 0 mm | 0 m/s | 0 W/m² | - |
| 1787680168 | 27.22° C | 90% | 1011.9 hPa | 0 mm | 0.45 m/s, 197° | 0 W/m² | - |
| 1787680108 | 27.22° C | 90% | 1012 hPa | 0 mm | 0.45 m/s, 186° | 0 W/m² | - |
| 1787680047 | 27.22° C | 90% | 1012 hPa | 0 mm | 0.89 m/s, 200° | 0 W/m² | - |
| 1787679986 | 27.22° C | 90% | 1012.1 hPa | 0 mm | 0.89 m/s, 162° | 0 W/m² | - |
| 1787679924 | 27.22° C | 90% | 1012 hPa | 0 mm | 0.89 m/s, 220° | 0 W/m² | - |
| 1787679863 | 27.22° C | 90% | 1012 hPa | 0 mm | 0.89 m/s, 217° | 0 W/m² | - |
| 1787679803 | 27.22° C | 90% | 1011.8 hPa | 0 mm | 0.89 m/s, 219° | 0 W/m² | - |
| 1787679741 | 27.22° C | 90% | 1012 hPa | 0 mm | 0.89 m/s, 217° | 0 W/m² | - |
| 1787679680 | 27.22° C | 89% | 1011.8 hPa | 0 mm | 0.89 m/s, 161° | 0 W/m² | - |
| 1787679619 | 27.22° C | 89% | 1012.1 hPa | 0 mm | 0.89 m/s, 158° | 0 W/m² | - |
| 1787679558 | 27.22° C | 89% | 1012.1 hPa | 0 mm | 0.45 m/s, 211° | 0 W/m² | - |
* Rain latest hour (hover to see other rain measurements)
** Current wind speed in m/s (hover to see current wind gust speed)